Anniston, Missouri
Current Conditions -  °F | °C
As of 9:55 PM on Wednesday 26 Nov 2014 (Local Time) from KCIR Reporting Station
Overcast Overcast  
Wind Chill:   Ceiling: 4000
Heat Index:   Visibility: 10mi
Dew Point:   Wind: 6mph
Humidity: 84%   Direction: 250°WSW
Pressure: 30.11"   Gusts: NA
Location:  36.83°N, 89.33°W
Report Text: KCIR 270355Z AUTO 25005KT 10SM SCT028 BKN040 OVC047 04/02 A3011 RMK AO2 T00400016
Loading
Personal Weather Stations






























Interactive Weather Map New forecast layout! Learn more

10-Day Weather Forecast

Advertisements
Track Severe Weather on mobile